createdAt,value
2023-01-19T22:17:57.484Z,11.42
2023-01-19T22:20:24.850Z,11.43
2023-01-19T22:22:52.189Z,11.39
2023-01-19T22:25:24.054Z,11.36
2023-01-19T22:27:51.319Z,11.33
2023-01-19T22:30:19.065Z,11.30
2023-01-19T22:32:46.328Z,11.25
2023-01-19T22:35:14.701Z,11.22
2023-01-19T22:37:42.155Z,11.19
2023-01-19T22:40:10.225Z,11.16
2023-01-19T22:42:37.478Z,11.13
2023-01-19T22:45:05.158Z,11.10
2023-01-19T22:47:32.499Z,11.07
2023-01-19T22:49:59.760Z,11.04
2023-01-19T22:52:27.104Z,11.03
2023-01-19T22:54:56.606Z,11.00
2023-01-19T22:57:24.131Z,10.98
2023-01-19T22:59:51.522Z,10.95
2023-01-19T23:02:20.803Z,10.93
2023-01-19T23:04:48.497Z,10.91
2023-01-19T23:07:15.734Z,10.89
2023-01-19T23:09:42.886Z,10.88
2023-01-19T23:12:10.136Z,10.86
2023-01-19T23:14:37.393Z,10.85
2023-01-19T23:17:04.642Z,10.82
2023-01-19T23:19:31.993Z,10.81
2023-01-19T23:21:59.167Z,10.79
2023-01-19T23:24:26.701Z,10.78
2023-01-19T23:26:53.965Z,10.77
2023-01-19T23:29:21.310Z,10.76
2023-01-19T23:31:49.277Z,10.75
2023-01-19T23:34:17.246Z,10.74
2023-01-19T23:36:44.513Z,10.73
2023-01-19T23:39:19.565Z,10.72
2023-01-19T23:41:46.991Z,10.71
2023-01-19T23:44:14.556Z,10.70
2023-01-19T23:46:41.714Z,10.70
2023-01-19T23:49:08.997Z,10.68
2023-01-19T23:51:36.312Z,10.68
2023-01-19T23:54:03.872Z,10.67
2023-01-19T23:56:35.691Z,10.66
2023-01-19T23:59:07.694Z,10.66
